Time,TemperatureF,DewpointF,PressureIn,WindDirection,WindDirectionDegrees,WindSpeedMPH,WindSpeedGustMPH,Humidity,HourlyPrecipIn,Conditions,Clouds,dailyrainin,SoftwareType,DateUTC
2013-10-14 00:00:00,36.2,34.4,30.43,North,5,0.0,0.0,93,0.00,,,0.00,Wunderground v.1.15,2013-10-14 05:00:00,
2013-10-14 00:05:00,36.2,34.6,30.43,North,5,0.0,0.0,94,0.00,,,0.00,Wunderground v.1.15,2013-10-14 05:05:00,
2013-10-14 00:10:00,36.1,34.5,30.43,North,5,0.0,0.0,94,0.00,,,0.00,Wunderground v.1.15,2013-10-14 05:10:00,
2013-10-14 00:17:00,35.9,34.1,30.43,North,5,0.0,0.0,93,0.00,,,0.00,Wunderground v.1.15,2013-10-14 05:17:00,
2013-10-14 00:22:00,35.9,34.3,30.43,North,5,0.0,0.0,94,0.00,,,0.00,Wunderground v.1.15,2013-10-14 05:22:00,
2013-10-14 00:28:00,35.9,34.3,30.44,North,5,0.0,0.0,94,0.00,,,0.00,Wunderground v.1.15,2013-10-14 05:28:00,
2013-10-14 00:33:00,35.8,34.2,30.44,North,5,0.0,0.0,94,0.00,,,0.00,Wunderground v.1.15,2013-10-14 05:33:00,
2013-10-14 00:38:00,35.7,34.1,30.44,North,5,0.0,0.0,94,0.00,,,0.00,Wunderground v.1.15,2013-10-14 05:38:00,
2013-10-14 00:43:00,35.5,33.9,30.44,North,5,0.0,0.0,94,0.00,,,0.00,Wunderground v.1.15,2013-10-14 05:43:00,
2013-10-14 00:48:00,35.4,33.8,30.44,North,5,0.0,0.0,94,0.00,,,0.00,Wunderground v.1.15,2013-10-14 05:48:00,
2013-10-14 00:54:00,35.3,33.7,30.44,North,5,0.0,0.0,94,0.00,,,0.00,Wunderground v.1.15,2013-10-14 05:54:00,
2013-10-14 00:59:00,35.1,33.5,30.44,North,5,0.0,0.0,94,0.00,,,0.00,Wunderground v.1.15,2013-10-14 05:59:00,
2013-10-14 01:04:00,34.9,33.3,30.44,North,5,0.0,0.0,94,0.00,,,0.00,Wunderground v.1.15,2013-10-14 06:04:00,
2013-10-14 01:09:00,34.9,33.3,30.45,North,5,0.0,0.0,94,0.00,,,0.00,Wunderground v.1.15,2013-10-14 06:09:00,
2013-10-14 01:15:00,34.9,33.3,30.45,North,5,0.0,0.0,94,0.00,,,0.00,Wunderground v.1.15,2013-10-14 06:15:00,
2013-10-14 01:21:00,34.8,33.2,30.44,North,5,0.0,0.0,94,0.00,,,0.00,Wunderground v.1.15,2013-10-14 06:21:00,
2013-10-14 01:26:00,34.6,33.1,30.44,North,5,0.0,0.0,94,0.00,,,0.00,Wunderground v.1.15,2013-10-14 06:26:00,
2013-10-14 01:31:00,34.4,32.9,30.45,North,5,0.0,0.0,94,0.00,,,0.00,Wunderground v.1.15,2013-10-14 06:31:00,
2013-10-14 01:37:00,34.6,33.1,30.45,North,5,0.0,0.0,94,0.00,,,0.00,Wunderground v.1.15,2013-10-14 06:37:00,
2013-10-14 01:42:00,34.6,33.1,30.45,North,5,0.0,0.0,94,0.00,,,0.00,Wunderground v.1.15,2013-10-14 06:42:00,
2013-10-14 01:47:00,34.7,33.2,30.45,North,5,0.0,0.0,94,0.00,,,0.00,Wunderground v.1.15,2013-10-14 06:47:00,
2013-10-14 01:52:00,34.7,33.2,30.45,North,5,0.0,0.0,94,0.00,,,0.00,Wunderground v.1.15,2013-10-14 06:52:00,
2013-10-14 01:57:00,34.6,33.1,30.45,North,5,0.0,0.0,94,0.00,,,0.00,Wunderground v.1.15,2013-10-14 06:57:00,
2013-10-14 02:03:00,34.4,32.9,30.45,North,5,0.0,0.0,94,0.00,,,0.00,Wunderground v.1.15,2013-10-14 07:03:00,
2013-10-14 02:08:00,34.3,32.8,30.45,North,5,0.0,0.0,94,0.00,,,0.00,Wunderground v.1.15,2013-10-14 07:08:00,
2013-10-14 02:13:00,34.2,32.7,30.45,North,5,0.0,0.0,94,0.00,,,0.00,Wunderground v.1.15,2013-10-14 07:13:00,
2013-10-14 02:18:00,34.1,32.6,30.45,North,5,0.0,0.0,94,0.00,,,0.00,Wunderground v.1.15,2013-10-14 07:18:00,
2013-10-14 02:23:00,34.1,32.6,30.45,North,5,0.0,0.0,94,0.00,,,0.00,Wunderground v.1.15,2013-10-14 07:23:00,
2013-10-14 02:28:00,34.1,32.6,30.45,North,5,0.0,0.0,94,0.00,,,0.00,Wunderground v.1.15,2013-10-14 07:28:00,
2013-10-14 02:34:00,34.2,32.9,30.45,North,5,0.0,0.0,95,0.00,,,0.00,Wunderground v.1.15,2013-10-14 07:34:00,
2013-10-14 02:39:00,34.4,33.1,30.45,North,5,0.0,0.0,95,0.00,,,0.00,Wunderground v.1.15,2013-10-14 07:39:00,
2013-10-14 02:44:00,34.4,33.1,30.45,North,5,0.0,0.0,95,0.00,,,0.00,Wunderground v.1.15,2013-10-14 07:44:00,
2013-10-14 02:49:00,34.5,33.2,30.45,North,5,0.0,0.0,95,0.00,,,0.00,Wunderground v.1.15,2013-10-14 07:49:00,
2013-10-14 02:54:00,34.5,33.2,30.45,North,5,0.0,0.0,95,0.00,,,0.00,Wunderground v.1.15,2013-10-14 07:54:00,
2013-10-14 02:59:00,34.6,33.3,30.45,North,5,0.0,0.0,95,0.00,,,0.00,Wunderground v.1.15,2013-10-14 07:59:00,
2013-10-14 03:04:00,34.7,33.4,30.45,North,5,0.0,0.0,95,0.00,,,0.00,Wunderground v.1.15,2013-10-14 08:04:00,
2013-10-14 03:10:00,34.6,33.3,30.45,North,5,0.0,0.0,95,0.00,,,0.00,Wunderground v.1.15,2013-10-14 08:10:00,
2013-10-14 03:15:00,34.7,33.4,30.45,North,5,0.0,0.0,95,0.00,,,0.00,Wunderground v.1.15,2013-10-14 08:15:00,
2013-10-14 03:21:00,34.8,33.5,30.45,North,5,0.0,0.0,95,0.00,,,0.00,Wunderground v.1.15,2013-10-14 08:21:00,
2013-10-14 03:26:00,34.8,33.5,30.45,North,5,0.0,0.0,95,0.00,,,0.00,Wunderground v.1.15,2013-10-14 08:26:00,
2013-10-14 03:31:00,34.7,33.4,30.45,North,5,0.0,0.0,95,0.00,,,0.00,Wunderground v.1.15,2013-10-14 08:31:00,
2013-10-14 03:36:00,34.7,33.4,30.44,North,5,0.0,0.0,95,0.00,,,0.00,Wunderground v.1.15,2013-10-14 08:36:00,
2013-10-14 03:41:00,34.6,33.3,30.44,North,5,0.0,0.0,95,0.00,,,0.00,Wunderground v.1.15,2013-10-14 08:41:00,
2013-10-14 03:47:00,34.4,33.1,30.44,North,5,0.0,0.0,95,0.00,,,0.00,Wunderground v.1.15,2013-10-14 08:47:00,
2013-10-14 03:53:00,34.3,33.0,30.45,North,5,0.0,0.0,95,0.00,,,0.00,Wunderground v.1.15,2013-10-14 08:53:00,
2013-10-14 03:58:00,34.1,32.8,30.45,North,5,0.0,0.0,95,0.00,,,0.00,Wunderground v.1.15,2013-10-14 08:58:00,
2013-10-14 04:04:00,33.9,32.6,30.45,North,5,0.0,0.0,95,0.00,,,0.00,Wunderground v.1.15,2013-10-14 09:04:00,
2013-10-14 04:09:00,33.8,32.5,30.45,North,5,0.0,0.0,95,0.00,,,0.00,Wunderground v.1.15,2013-10-14 09:09:00,
2013-10-14 04:14:00,33.8,32.5,30.45,North,5,0.0,0.0,95,0.00,,,0.00,Wunderground v.1.15,2013-10-14 09:14:00,
2013-10-14 04:19:00,33.9,32.6,30.45,North,5,0.0,0.0,95,0.00,,,0.00,Wunderground v.1.15,2013-10-14 09:19:00,
2013-10-14 04:24:00,34.4,33.1,30.45,North,5,0.0,0.0,95,0.00,,,0.00,Wunderground v.1.15,2013-10-14 09:24:00,
2013-10-14 04:29:00,34.6,33.6,30.46,North,5,0.0,0.0,96,0.00,,,0.00,Wunderground v.1.15,2013-10-14 09:29:00,
2013-10-14 04:34:00,34.7,33.7,30.45,North,5,0.0,0.0,96,0.00,,,0.00,Wunderground v.1.15,2013-10-14 09:34:00,
2013-10-14 04:39:00,34.7,33.7,30.45,North,5,0.0,0.0,96,0.00,,,0.00,Wunderground v.1.15,2013-10-14 09:39:00,
2013-10-14 04:44:00,34.6,33.3,30.46,North,5,0.0,0.0,95,0.00,,,0.00,Wunderground v.1.15,2013-10-14 09:44:00,
2013-10-14 04:49:00,34.5,33.2,30.45,North,5,0.0,0.0,95,0.00,,,0.00,Wunderground v.1.15,2013-10-14 09:49:00,
2013-10-14 04:54:00,34.3,33.0,30.45,North,5,0.0,0.0,95,0.00,,,0.00,Wunderground v.1.15,2013-10-14 09:54:00,
2013-10-14 04:59:00,34.1,32.8,30.45,North,5,0.0,0.0,95,0.00,,,0.00,Wunderground v.1.15,2013-10-14 09:59:00,
2013-10-14 05:04:00,33.9,32.6,30.46,North,5,0.0,0.0,95,0.00,,,0.00,Wunderground v.1.15,2013-10-14 10:04:00,
2013-10-14 05:09:00,33.9,32.6,30.46,North,5,0.0,0.0,95,0.00,,,0.00,Wunderground v.1.15,2013-10-14 10:09:00,
2013-10-14 05:14:00,33.9,32.6,30.46,North,5,0.0,0.0,95,0.00,,,0.00,Wunderground v.1.15,2013-10-14 10:14:00,
2013-10-14 05:19:00,33.8,32.5,30.46,North,5,0.0,0.0,95,0.00,,,0.00,Wunderground v.1.15,2013-10-14 10:19:00,
2013-10-14 05:24:00,33.7,32.4,30.45,North,5,0.0,0.0,95,0.00,,,0.00,Wunderground v.1.15,2013-10-14 10:24:00,
2013-10-14 05:29:00,33.5,32.2,30.45,North,5,0.0,0.0,95,0.00,,,0.00,Wunderground v.1.15,2013-10-14 10:29:00,
2013-10-14 05:34:00,33.5,32.2,30.46,North,5,0.0,0.0,95,0.00,,,0.00,Wunderground v.1.15,2013-10-14 10:34:00,
2013-10-14 05:40:00,33.5,32.2,30.45,North,5,0.0,0.0,95,0.00,,,0.00,Wunderground v.1.15,2013-10-14 10:40:00,
2013-10-14 05:45:00,33.4,32.1,30.45,North,5,0.0,0.0,95,0.00,,,0.00,Wunderground v.1.15,2013-10-14 10:45:00,
2013-10-14 05:50:00,33.3,32.0,30.45,North,5,0.0,0.0,95,0.00,,,0.00,Wunderground v.1.15,2013-10-14 10:50:00,
2013-10-14 05:55:00,33.2,31.9,30.46,North,5,0.0,0.0,95,0.00,,,0.00,Wunderground v.1.15,2013-10-14 10:55:00,
2013-10-14 06:00:00,33.2,31.9,30.45,North,5,0.0,0.0,95,0.00,,,0.00,Wunderground v.1.15,2013-10-14 11:00:00,
2013-10-14 06:05:00,33.1,31.8,30.45,North,5,0.0,0.0,95,0.00,,,0.00,Wunderground v.1.15,2013-10-14 11:05:00,
2013-10-14 06:10:00,33.3,32.0,30.46,North,5,0.0,0.0,95,0.00,,,0.00,Wunderground v.1.15,2013-10-14 11:10:00,
2013-10-14 06:16:00,33.4,32.1,30.46,North,5,0.0,0.0,95,0.00,,,0.00,Wunderground v.1.15,2013-10-14 11:16:00,
2013-10-14 06:22:00,33.4,32.1,30.45,North,5,0.0,0.0,95,0.00,,,0.00,Wunderground v.1.15,2013-10-14 11:22:00,
2013-10-14 06:27:00,33.3,32.3,30.45,North,5,0.0,0.0,96,0.00,,,0.00,Wunderground v.1.15,2013-10-14 11:27:00,
2013-10-14 06:32:00,33.3,32.3,30.45,North,5,0.0,0.0,96,0.00,,,0.00,Wunderground v.1.15,2013-10-14 11:32:00,
2013-10-14 06:37:00,33.3,32.3,30.45,North,5,0.0,0.0,96,0.00,,,0.00,Wunderground v.1.15,2013-10-14 11:37:00,
2013-10-14 06:43:00,33.4,32.4,30.45,North,5,0.0,0.0,96,0.00,,,0.00,Wunderground v.1.15,2013-10-14 11:43:00,
2013-10-14 06:48:00,33.4,32.4,30.45,North,5,0.0,0.0,96,0.00,,,0.00,Wunderground v.1.15,2013-10-14 11:48:00,
2013-10-14 06:53:00,33.6,32.6,30.45,North,5,0.0,0.0,96,0.00,,,0.00,Wunderground v.1.15,2013-10-14 11:53:00,
2013-10-14 06:58:00,33.8,32.8,30.45,North,5,0.0,0.0,96,0.00,,,0.00,Wunderground v.1.15,2013-10-14 11:58:00,
2013-10-14 07:03:00,34.0,33.0,30.45,North,5,0.0,0.0,96,0.00,,,0.00,Wunderground v.1.15,2013-10-14 12:03:00,
2013-10-14 07:08:00,34.2,33.2,30.45,North,5,0.0,0.0,96,0.00,,,0.00,Wunderground v.1.15,2013-10-14 12:08:00,
2013-10-14 07:13:00,34.5,33.5,30.45,North,5,0.0,0.0,96,0.00,,,0.00,Wunderground v.1.15,2013-10-14 12:13:00,
2013-10-14 07:18:00,34.8,33.8,30.45,North,5,0.0,0.0,96,0.00,,,0.00,Wunderground v.1.15,2013-10-14 12:18:00,
2013-10-14 07:23:00,35.0,34.0,30.45,North,5,0.0,0.0,96,0.00,,,0.00,Wunderground v.1.15,2013-10-14 12:23:00,
2013-10-14 07:28:00,35.2,34.2,30.45,North,5,0.0,0.0,96,0.00,,,0.00,Wunderground v.1.15,2013-10-14 12:28:00,
2013-10-14 07:33:00,35.4,34.4,30.45,North,5,0.0,0.0,96,0.00,,,0.00,Wunderground v.1.15,2013-10-14 12:33:00,
2013-10-14 07:39:00,35.5,34.5,30.45,North,5,0.0,0.0,96,0.00,,,0.00,Wunderground v.1.15,2013-10-14 12:39:00,
2013-10-14 07:45:00,35.7,34.7,30.44,North,5,0.0,0.0,96,0.00,,,0.00,Wunderground v.1.15,2013-10-14 12:45:00,
2013-10-14 07:50:00,35.9,34.9,30.44,North,5,0.0,0.0,96,0.00,,,0.00,Wunderground v.1.15,2013-10-14 12:50:00,
2013-10-14 07:55:00,36.2,35.2,30.44,North,5,0.0,0.0,96,0.00,,,0.00,Wunderground v.1.15,2013-10-14 12:55:00,
2013-10-14 08:00:00,36.4,35.6,30.44,North,5,0.0,0.0,97,0.00,,,0.00,Wunderground v.1.15,2013-10-14 13:00:00,
2013-10-14 08:05:00,36.7,35.7,30.44,North,5,0.0,0.0,96,0.00,,,0.01,Wunderground v.1.15,2013-10-14 13:05:00,
2013-10-14 08:11:00,37.0,36.2,30.43,North,5,0.0,0.0,97,0.00,,,0.01,Wunderground v.1.15,2013-10-14 13:11:00,
2013-10-14 08:17:00,37.4,36.6,30.43,North,5,0.0,0.0,97,0.00,,,0.01,Wunderground v.1.15,2013-10-14 13:17:00,
2013-10-14 08:22:00,38.2,37.4,30.43,North,5,0.0,0.0,97,0.00,,,0.01,Wunderground v.1.15,2013-10-14 13:22:00,
2013-10-14 08:27:00,39.2,38.4,30.43,North,5,0.0,0.0,97,0.00,,,0.01,Wunderground v.1.15,2013-10-14 13:27:00,
2013-10-14 08:32:00,40.5,39.7,30.43,North,5,0.0,0.0,97,0.00,,,0.01,Wunderground v.1.15,2013-10-14 13:32:00,
2013-10-14 08:37:00,41.4,40.6,30.43,North,5,0.0,0.0,97,0.00,,,0.01,Wunderground v.1.15,2013-10-14 13:37:00,
2013-10-14 08:42:00,42.3,41.5,30.43,North,5,0.0,0.0,97,0.00,,,0.01,Wunderground v.1.15,2013-10-14 13:42:00,
2013-10-14 08:47:00,43.6,42.8,30.43,North,5,1.0,1.0,97,0.00,,,0.01,Wunderground v.1.15,2013-10-14 13:47:00,
2013-10-14 08:53:00,44.8,44.0,30.43,North,5,0.0,0.0,97,0.00,,,0.01,Wunderground v.1.15,2013-10-14 13:53:00,
2013-10-14 08:58:00,45.8,45.3,30.43,North,5,0.0,0.0,98,0.00,,,0.01,Wunderground v.1.15,2013-10-14 13:58:00,
2013-10-14 09:03:00,46.7,45.9,30.43,North,5,0.0,0.0,97,0.00,,,0.01,Wunderground v.1.15,2013-10-14 14:03:00,
2013-10-14 09:08:00,47.6,47.1,30.43,North,5,0.0,0.0,98,0.00,,,0.01,Wunderground v.1.15,2013-10-14 14:08:00,
2013-10-14 09:13:00,48.0,47.5,30.43,North,5,0.0,1.0,98,0.00,,,0.01,Wunderground v.1.15,2013-10-14 14:13:00,
2013-10-14 09:19:00,48.3,47.8,30.43,North,5,0.0,1.0,98,0.00,,,0.01,Wunderground v.1.15,2013-10-14 14:19:00,
2013-10-14 09:24:00,48.5,48.0,30.43,NNE,25,2.0,2.0,98,0.00,,,0.01,Wunderground v.1.15,2013-10-14 14:24:00,
2013-10-14 09:29:00,48.7,48.2,30.43,NNE,25,1.0,2.0,98,0.00,,,0.01,Wunderground v.1.15,2013-10-14 14:29:00,
2013-10-14 09:34:00,48.8,48.3,30.43,East,101,1.0,2.0,98,0.00,,,0.01,Wunderground v.1.15,2013-10-14 14:34:00,
2013-10-14 09:39:00,49.0,48.5,30.43,East,101,1.0,2.0,98,0.00,,,0.01,Wunderground v.1.15,2013-10-14 14:39:00,
2013-10-14 09:44:00,49.4,48.9,30.43,East,101,1.0,1.0,98,0.00,,,0.01,Wunderground v.1.15,2013-10-14 14:44:00,
2013-10-14 09:49:00,49.9,49.4,30.43,East,98,0.0,3.0,98,0.00,,,0.01,Wunderground v.1.15,2013-10-14 14:49:00,
2013-10-14 09:54:00,50.4,49.6,30.42,East,98,0.0,3.0,97,0.00,,,0.01,Wunderground v.1.15,2013-10-14 14:54:00,
2013-10-14 09:59:00,50.9,50.1,30.42,ESE,111,1.0,3.0,97,0.00,,,0.01,Wunderground v.1.15,2013-10-14 14:59:00,
2013-10-14 10:04:00,51.6,50.5,30.43,ESE,112,0.0,3.0,96,0.00,,,0.01,Wunderground v.1.15,2013-10-14 15:04:00,
2013-10-14 10:09:00,52.2,50.5,30.43,East,91,3.0,4.0,94,0.00,,,0.01,Wunderground v.1.15,2013-10-14 15:09:00,
2013-10-14 10:15:00,52.8,49.9,30.43,ENE,61,4.0,5.0,90,0.00,,,0.01,Wunderground v.1.15,2013-10-14 15:15:00,
2013-10-14 10:20:00,53.4,50.2,30.43,East,100,3.0,5.0,89,0.00,,,0.01,Wunderground v.1.15,2013-10-14 15:20:00,
2013-10-14 10:25:00,53.9,49.8,30.43,East,99,5.0,6.0,86,0.00,,,0.01,Wunderground v.1.15,2013-10-14 15:25:00,
2013-10-14 10:30:00,54.4,49.7,30.43,SSE,159,6.0,6.0,84,0.00,,,0.01,Wunderground v.1.15,2013-10-14 15:30:00,
2013-10-14 10:35:00,55.1,50.0,30.43,SSE,160,7.0,10.0,83,0.00,,,0.01,Wunderground v.1.15,2013-10-14 15:35:00,
2013-10-14 10:40:00,55.6,48.8,30.43,SSE,167,2.0,11.0,78,0.00,,,0.01,Wunderground v.1.15,2013-10-14 15:40:00,
2013-10-14 10:45:00,56.4,49.3,30.43,ESE,122,2.0,5.0,77,0.00,,,0.01,Wunderground v.1.15,2013-10-14 15:45:00,
2013-10-14 10:50:00,56.9,48.3,30.43,SSE,154,5.0,9.0,73,0.00,,,0.01,Wunderground v.1.15,2013-10-14 15:50:00,
2013-10-14 10:55:00,57.2,48.6,30.43,ESE,109,6.0,11.0,73,0.00,,,0.01,Wunderground v.1.15,2013-10-14 15:55:00,
2013-10-14 11:00:00,56.8,47.1,30.43,SSE,166,4.0,14.0,70,0.00,,,0.01,Wunderground v.1.15,2013-10-14 16:00:00,
2013-10-14 11:05:00,56.3,47.4,30.43,SSE,154,10.0,12.0,72,0.00,,,0.01,Wunderground v.1.15,2013-10-14 16:05:00,
2013-10-14 11:10:00,56.2,46.5,30.43,SSE,156,6.0,12.0,70,0.00,,,0.01,Wunderground v.1.15,2013-10-14 16:10:00,
2013-10-14 11:15:00,56.2,46.9,30.43,SSE,151,2.0,7.0,71,0.00,,,0.01,Wunderground v.1.15,2013-10-14 16:15:00,
2013-10-14 11:20:00,56.1,46.1,30.43,SE,126,4.0,9.0,69,0.00,,,0.01,Wunderground v.1.15,2013-10-14 16:20:00,
2013-10-14 11:25:00,56.1,46.8,30.43,ESE,107,3.0,9.0,71,0.00,,,0.01,Wunderground v.1.15,2013-10-14 16:25:00,
2013-10-14 11:30:00,56.0,46.7,30.43,ESE,113,1.0,9.0,71,0.00,,,0.01,Wunderground v.1.15,2013-10-14 16:30:00,
2013-10-14 11:35:00,56.2,46.9,30.43,ESE,118,1.0,6.0,71,0.00,,,0.01,Wunderground v.1.15,2013-10-14 16:35:00,
2013-10-14 11:40:00,57.3,47.2,30.43,South,175,4.0,4.0,69,0.00,,,0.01,Wunderground v.1.15,2013-10-14 16:40:00,
2013-10-14 11:45:00,57.3,46.8,30.42,South,185,1.0,7.0,68,0.00,,,0.01,Wunderground v.1.15,2013-10-14 16:45:00,
2013-10-14 11:51:00,57.5,47.4,30.42,East,94,2.0,2.0,69,0.00,,,0.01,Wunderground v.1.15,2013-10-14 16:51:00,
2013-10-14 11:56:00,57.5,46.6,30.42,ESE,107,1.0,7.0,67,0.00,,,0.01,Wunderground v.1.15,2013-10-14 16:56:00,
2013-10-14 12:01:00,57.5,47.0,30.42,SSE,152,3.0,4.0,68,0.00,,,0.01,Wunderground v.1.15,2013-10-14 17:01:00,
2013-10-14 12:06:00,57.5,46.2,30.41,ENE,76,2.0,7.0,66,0.00,,,0.01,Wunderground v.1.15,2013-10-14 17:06:00,
2013-10-14 12:11:00,57.6,45.5,30.41,ESE,103,9.0,10.0,64,0.00,,,0.01,Wunderground v.1.15,2013-10-14 17:11:00,
2013-10-14 12:17:00,57.9,46.2,30.40,ESE,109,2.0,10.0,65,0.00,,,0.01,Wunderground v.1.15,2013-10-14 17:17:00,
2013-10-14 12:22:00,58.4,46.7,30.39,SE,139,5.0,10.0,65,0.00,,,0.01,Wunderground v.1.15,2013-10-14 17:22:00,
2013-10-14 12:27:00,58.8,45.4,30.39,ESE,119,6.0,12.0,61,0.00,,,0.01,Wunderground v.1.15,2013-10-14 17:27:00,
2013-10-14 12:32:00,58.8,46.6,30.39,SE,140,9.0,9.0,64,0.00,,,0.01,Wunderground v.1.15,2013-10-14 17:32:00,
2013-10-14 12:37:00,58.9,45.9,30.39,SE,125,3.0,9.0,62,0.00,,,0.01,Wunderground v.1.15,2013-10-14 17:37:00,
2013-10-14 12:42:00,58.8,46.6,30.39,ESE,123,6.0,10.0,64,0.00,,,0.01,Wunderground v.1.15,2013-10-14 17:42:00,
2013-10-14 12:48:00,58.8,45.8,30.39,ESE,109,7.0,10.0,62,0.00,,,0.01,Wunderground v.1.15,2013-10-14 17:48:00,
2013-10-14 12:53:00,58.7,45.3,30.39,East,101,9.0,13.0,61,0.00,,,0.01,Wunderground v.1.15,2013-10-14 17:53:00,
2013-10-14 12:58:00,59.0,46.8,30.38,ESE,120,3.0,13.0,64,0.00,,,0.01,Wunderground v.1.15,2013-10-14 17:58:00,
2013-10-14 13:03:00,59.5,46.5,30.38,SSE,155,8.0,11.0,62,0.00,,,0.01,Wunderground v.1.15,2013-10-14 18:03:00,
2013-10-14 13:08:00,59.6,47.0,30.37,ESE,105,4.0,11.0,63,0.00,,,0.01,Wunderground v.1.15,2013-10-14 18:08:00,
2013-10-14 13:13:00,59.8,46.7,30.37,SSE,157,8.0,12.0,62,0.00,,,0.01,Wunderground v.1.15,2013-10-14 18:13:00,
2013-10-14 13:18:00,59.7,45.8,30.37,ESE,119,10.0,13.0,60,0.00,,,0.01,Wunderground v.1.15,2013-10-14 18:18:00,
2013-10-14 13:23:00,59.5,45.2,30.36,SE,144,5.0,10.0,59,0.00,,,0.01,Wunderground v.1.15,2013-10-14 18:23:00,
2013-10-14 13:29:00,59.8,46.3,30.35,SSE,154,3.0,10.0,61,0.00,,,0.01,Wunderground v.1.15,2013-10-14 18:29:00,
2013-10-14 13:34:00,60.2,46.7,30.36,ESE,107,9.0,10.0,61,0.00,,,0.01,Wunderground v.1.15,2013-10-14 18:34:00,
2013-10-14 13:39:00,60.1,46.6,30.35,SSE,153,2.0,10.0,61,0.00,,,0.01,Wunderground v.1.15,2013-10-14 18:39:00,
2013-10-14 13:44:00,60.2,45.8,30.35,East,85,4.0,9.0,59,0.00,,,0.01,Wunderground v.1.15,2013-10-14 18:44:00,
2013-10-14 13:49:00,59.9,46.4,30.35,ESE,123,5.0,11.0,61,0.00,,,0.01,Wunderground v.1.15,2013-10-14 18:49:00,
2013-10-14 13:54:00,59.5,46.5,30.34,ENE,63,3.0,11.0,62,0.00,,,0.01,Wunderground v.1.15,2013-10-14 18:54:00,
2013-10-14 14:00:00,59.6,45.7,30.34,ENE,77,5.0,11.0,60,0.00,,,0.01,Wunderground v.1.15,2013-10-14 19:00:00,
2013-10-14 14:05:00,59.5,46.0,30.34,SSE,150,4.0,10.0,61,0.00,,,0.01,Wunderground v.1.15,2013-10-14 19:05:00,
2013-10-14 14:10:00,59.9,46.8,30.34,ESE,111,6.0,6.0,62,0.00,,,0.01,Wunderground v.1.15,2013-10-14 19:10:00,
2013-10-14 14:15:00,60.2,47.1,30.33,SE,127,7.0,11.0,62,0.00,,,0.01,Wunderground v.1.15,2013-10-14 19:15:00,
2013-10-14 14:21:00,60.1,46.6,30.33,ESE,103,5.0,5.0,61,0.00,,,0.01,Wunderground v.1.15,2013-10-14 19:21:00,
2013-10-14 14:26:00,60.1,47.0,30.32,SSE,150,10.0,10.0,62,0.00,,,0.01,Wunderground v.1.15,2013-10-14 19:26:00,
2013-10-14 14:31:00,60.4,47.3,30.32,SSE,157,6.0,6.0,62,0.00,,,0.01,Wunderground v.1.15,2013-10-14 19:31:00,
2013-10-14 14:36:00,60.4,46.9,30.31,South,188,5.0,17.0,61,0.00,,,0.01,Wunderground v.1.15,2013-10-14 19:36:00,
2013-10-14 14:41:00,60.5,47.0,30.31,SSE,153,13.0,13.0,61,0.00,,,0.01,Wunderground v.1.15,2013-10-14 19:41:00,
2013-10-14 14:46:00,60.0,46.5,30.31,South,175,9.0,13.0,61,0.00,,,0.01,Wunderground v.1.15,2013-10-14 19:46:00,
2013-10-14 14:51:00,59.7,46.7,30.31,SE,138,7.0,8.0,62,0.00,,,0.01,Wunderground v.1.15,2013-10-14 19:51:00,
2013-10-14 14:56:00,59.5,46.5,30.31,ESE,122,6.0,17.0,62,0.00,,,0.01,Wunderground v.1.15,2013-10-14 19:56:00,
2013-10-14 15:01:00,59.7,47.1,30.30,SSE,149,5.0,6.0,63,0.00,,,0.01,Wunderground v.1.15,2013-10-14 20:01:00,
2013-10-14 15:07:00,59.8,46.7,30.30,East,98,6.0,12.0,62,0.00,,,0.01,Wunderground v.1.15,2013-10-14 20:07:00,
2013-10-14 15:12:00,59.6,46.1,30.30,South,172,9.0,15.0,61,0.00,,,0.01,Wunderground v.1.15,2013-10-14 20:12:00,
2013-10-14 15:17:00,59.3,46.3,30.30,South,173,5.0,15.0,62,0.00,,,0.01,Wunderground v.1.15,2013-10-14 20:17:00,
2013-10-14 15:22:00,59.0,46.4,30.30,SSE,157,7.0,10.0,63,0.00,,,0.01,Wunderground v.1.15,2013-10-14 20:22:00,
2013-10-14 15:27:00,58.9,46.3,30.30,SE,135,5.0,10.0,63,0.00,,,0.01,Wunderground v.1.15,2013-10-14 20:27:00,
2013-10-14 15:32:00,58.9,46.3,30.30,SSE,153,11.0,14.0,63,0.00,,,0.01,Wunderground v.1.15,2013-10-14 20:32:00,
2013-10-14 15:38:00,58.9,46.7,30.30,East,96,8.0,14.0,64,0.00,,,0.01,Wunderground v.1.15,2013-10-14 20:38:00,
2013-10-14 15:43:00,58.5,45.9,30.30,ESE,119,10.0,14.0,63,0.00,,,0.01,Wunderground v.1.15,2013-10-14 20:43:00,
2013-10-14 15:48:00,58.2,46.1,30.30,ESE,113,7.0,14.0,64,0.00,,,0.01,Wunderground v.1.15,2013-10-14 20:48:00,
2013-10-14 15:53:00,58.0,45.9,30.30,SSE,165,5.0,8.0,64,0.00,,,0.01,Wunderground v.1.15,2013-10-14 20:53:00,
2013-10-14 15:58:00,57.8,45.7,30.29,SE,141,3.0,13.0,64,0.00,,,0.01,Wunderground v.1.15,2013-10-14 20:58:00,
2013-10-14 16:03:00,57.7,45.6,30.29,East,90,1.0,10.0,64,0.00,,,0.01,Wunderground v.1.15,2013-10-14 21:03:00,
2013-10-14 16:09:00,57.4,45.3,30.28,ESE,123,9.0,13.0,64,0.00,,,0.01,Wunderground v.1.15,2013-10-14 21:09:00,
2013-10-14 16:14:00,57.3,46.0,30.28,SE,138,4.0,7.0,66,0.00,,,0.01,Wunderground v.1.15,2013-10-14 21:14:00,
2013-10-14 16:20:00,57.3,45.6,30.28,SE,129,2.0,12.0,65,0.00,,,0.01,Wunderground v.1.15,2013-10-14 21:20:00,
2013-10-14 16:25:00,57.2,45.5,30.29,SSE,166,6.0,11.0,65,0.00,,,0.01,Wunderground v.1.15,2013-10-14 21:25:00,
2013-10-14 16:30:00,56.9,45.3,30.29,SE,141,6.0,6.0,65,0.00,,,0.01,Wunderground v.1.15,2013-10-14 21:30:00,
2013-10-14 16:36:00,56.7,45.5,30.28,ESE,121,7.0,9.0,66,0.00,,,0.01,Wunderground v.1.15,2013-10-14 21:36:00,
2013-10-14 16:42:00,56.6,45.4,30.27,SSE,166,4.0,5.0,66,0.00,,,0.01,Wunderground v.1.15,2013-10-14 21:42:00,
2013-10-14 16:47:00,56.6,45.4,30.27,South,176,7.0,13.0,66,0.00,,,0.01,Wunderground v.1.15,2013-10-14 21:47:00,
2013-10-14 16:52:00,56.3,45.5,30.27,South,171,5.0,7.0,67,0.00,,,0.01,Wunderground v.1.15,2013-10-14 21:52:00,
2013-10-14 16:57:00,56.0,44.8,30.27,SE,132,0.0,9.0,66,0.00,,,0.01,Wunderground v.1.15,2013-10-14 21:57:00,
2013-10-14 17:02:00,55.8,45.0,30.27,East,96,3.0,7.0,67,0.00,,,0.01,Wunderground v.1.15,2013-10-14 22:02:00,
2013-10-14 17:07:00,55.5,44.7,30.27,SE,144,3.0,10.0,67,0.00,,,0.01,Wunderground v.1.15,2013-10-14 22:07:00,
2013-10-14 17:12:00,55.3,44.9,30.27,SE,128,5.0,10.0,68,0.00,,,0.01,Wunderground v.1.15,2013-10-14 22:12:00,
2013-10-14 17:17:00,55.1,44.7,30.27,SE,136,0.0,10.0,68,0.00,,,0.01,Wunderground v.1.15,2013-10-14 22:17:00,
2013-10-14 17:23:00,54.9,44.9,30.27,SSE,167,3.0,4.0,69,0.00,,,0.01,Wunderground v.1.15,2013-10-14 22:23:00,
2013-10-14 17:29:00,54.5,44.5,30.27,ESE,110,6.0,7.0,69,0.00,,,0.01,Wunderground v.1.15,2013-10-14 22:29:00,
2013-10-14 17:34:00,54.1,44.5,30.27,SSE,160,4.0,8.0,70,0.00,,,0.01,Wunderground v.1.15,2013-10-14 22:34:00,
2013-10-14 17:39:00,53.7,44.5,30.27,SSE,159,1.0,8.0,71,0.00,,,0.01,Wunderground v.1.15,2013-10-14 22:39:00,
2013-10-14 17:44:00,53.3,44.5,30.27,East,94,4.0,5.0,72,0.00,,,0.01,Wunderground v.1.15,2013-10-14 22:44:00,
2013-10-14 17:49:00,53.0,44.6,30.27,ESE,111,0.0,6.0,73,0.00,,,0.01,Wunderground v.1.15,2013-10-14 22:49:00,
2013-10-14 17:55:00,52.6,44.2,30.26,ESE,111,4.0,4.0,73,0.00,,,0.01,Wunderground v.1.15,2013-10-14 22:55:00,
2013-10-14 18:00:00,52.4,44.4,30.27,ESE,116,0.0,2.0,74,0.00,,,0.01,Wunderground v.1.15,2013-10-14 23:00:00,
2013-10-14 18:05:00,52.1,44.4,30.27,ESE,119,0.0,3.0,75,0.00,,,0.01,Wunderground v.1.15,2013-10-14 23:05:00,
2013-10-14 18:10:00,51.7,44.0,30.27,ESE,119,0.0,0.0,75,0.00,,,0.01,Wunderground v.1.15,2013-10-14 23:10:00,
2013-10-14 18:15:00,51.4,43.7,30.27,ESE,119,0.0,2.0,75,0.00,,,0.01,Wunderground v.1.15,2013-10-14 23:15:00,
2013-10-14 18:21:00,51.0,43.7,30.27,ESE,121,0.0,0.0,76,0.00,,,0.01,Wunderground v.1.15,2013-10-14 23:21:00,
2013-10-14 18:26:00,50.7,43.8,30.27,ESE,121,0.0,2.0,77,0.00,,,0.01,Wunderground v.1.15,2013-10-14 23:26:00,
2013-10-14 18:31:00,50.6,44.0,30.26,ESE,110,1.0,3.0,78,0.00,,,0.01,Wunderground v.1.15,2013-10-14 23:31:00,
2013-10-14 18:37:00,50.6,44.3,30.27,ESE,115,2.0,4.0,79,0.00,,,0.01,Wunderground v.1.15,2013-10-14 23:37:00,
2013-10-14 18:42:00,50.5,44.2,30.27,ESE,122,2.0,3.0,79,0.00,,,0.01,Wunderground v.1.15,2013-10-14 23:42:00,
2013-10-14 18:47:00,50.5,44.2,30.26,ESE,108,2.0,3.0,79,0.00,,,0.01,Wunderground v.1.15,2013-10-14 23:47:00,
2013-10-14 18:52:00,50.3,44.0,30.26,ESE,116,1.0,2.0,79,0.00,,,0.01,Wunderground v.1.15,2013-10-14 23:52:00,
2013-10-14 18:57:00,50.1,43.8,30.26,ESE,116,0.0,2.0,79,0.00,,,0.01,Wunderground v.1.15,2013-10-14 23:57:00,
2013-10-14 19:02:00,50.0,43.7,30.26,ESE,116,1.0,1.0,79,0.00,,,0.01,Wunderground v.1.15,2013-10-15 00:02:00,
2013-10-14 19:07:00,49.7,43.8,30.26,ESE,116,1.0,2.0,80,0.00,,,0.01,Wunderground v.1.15,2013-10-15 00:07:00,
2013-10-14 19:12:00,49.4,43.5,30.26,ESE,116,0.0,3.0,80,0.00,,,0.01,Wunderground v.1.15,2013-10-15 00:12:00,
2013-10-14 19:18:00,49.3,43.7,30.26,ESE,117,0.0,3.0,81,0.00,,,0.01,Wunderground v.1.15,2013-10-15 00:18:00,
2013-10-14 19:23:00,49.2,43.6,30.25,ESE,106,5.0,5.0,81,0.00,,,0.01,Wunderground v.1.15,2013-10-15 00:23:00,
2013-10-14 19:28:00,49.2,43.6,30.25,SE,146,0.0,5.0,81,0.00,,,0.01,Wunderground v.1.15,2013-10-15 00:28:00,
2013-10-14 19:33:00,49.2,43.9,30.25,East,101,1.0,4.0,82,0.00,,,0.01,Wunderground v.1.15,2013-10-15 00:33:00,
2013-10-14 19:38:00,49.3,44.0,30.25,ESE,113,1.0,7.0,82,0.00,,,0.01,Wunderground v.1.15,2013-10-15 00:38:00,
2013-10-14 19:43:00,49.4,44.1,30.25,SSE,167,0.0,5.0,82,0.00,,,0.01,Wunderground v.1.15,2013-10-15 00:43:00,
2013-10-14 19:48:00,49.4,43.8,30.25,ESE,118,1.0,5.0,81,0.00,,,0.01,Wunderground v.1.15,2013-10-15 00:48:00,
2013-10-14 19:54:00,49.3,44.0,30.25,ESE,118,1.0,4.0,82,0.00,,,0.01,Wunderground v.1.15,2013-10-15 00:54:00,
2013-10-14 19:59:00,49.3,44.0,30.25,ESE,106,4.0,4.0,82,0.00,,,0.01,Wunderground v.1.15,2013-10-15 00:59:00,
2013-10-14 20:04:00,49.1,43.8,30.25,SSE,163,1.0,1.0,82,0.00,,,0.01,Wunderground v.1.15,2013-10-15 01:04:00,
2013-10-14 20:09:00,48.9,43.6,30.25,ESE,115,0.0,3.0,82,0.00,,,0.01,Wunderground v.1.15,2013-10-15 01:09:00,
2013-10-14 20:15:00,48.8,43.5,30.24,ESE,116,0.0,3.0,82,0.00,,,0.01,Wunderground v.1.15,2013-10-15 01:15:00,
2013-10-14 20:20:00,48.7,43.8,30.24,ESE,116,0.0,3.0,83,0.00,,,0.01,Wunderground v.1.15,2013-10-15 01:20:00,
2013-10-14 20:26:00,48.5,43.6,30.24,SE,133,2.0,2.0,83,0.00,,,0.01,Wunderground v.1.15,2013-10-15 01:26:00,
2013-10-14 20:31:00,48.3,43.4,30.24,SE,126,1.0,1.0,83,0.00,,,0.01,Wunderground v.1.15,2013-10-15 01:31:00,
2013-10-14 20:36:00,48.4,43.8,30.24,ESE,123,1.0,3.0,84,0.00,,,0.01,Wunderground v.1.15,2013-10-15 01:36:00,
2013-10-14 20:42:00,48.3,43.7,30.24,ESE,117,3.0,3.0,84,0.00,,,0.01,Wunderground v.1.15,2013-10-15 01:42:00,
2013-10-14 20:47:00,48.3,43.7,30.24,SSE,159,0.0,4.0,84,0.00,,,0.01,Wunderground v.1.15,2013-10-15 01:47:00,
2013-10-14 20:53:00,48.4,44.1,30.24,ESE,117,1.0,4.0,85,0.00,,,0.01,Wunderground v.1.15,2013-10-15 01:53:00,
2013-10-14 20:58:00,48.4,44.1,30.23,ESE,119,1.0,4.0,85,0.00,,,0.01,Wunderground v.1.15,2013-10-15 01:58:00,
2013-10-14 21:03:00,48.5,43.9,30.23,SE,137,0.0,2.0,84,0.00,,,0.01,Wunderground v.1.15,2013-10-15 02:03:00,
2013-10-14 21:08:00,48.4,43.8,30.23,SE,146,4.0,4.0,84,0.00,,,0.01,Wunderground v.1.15,2013-10-15 02:08:00,
2013-10-14 21:13:00,48.5,43.9,30.23,SE,132,2.0,5.0,84,0.00,,,0.01,Wunderground v.1.15,2013-10-15 02:13:00,
2013-10-14 21:19:00,48.5,43.9,30.22,SE,146,0.0,5.0,84,0.00,,,0.01,Wunderground v.1.15,2013-10-15 02:19:00,
2013-10-14 21:24:00,48.7,44.1,30.22,SSE,156,3.0,5.0,84,0.00,,,0.01,Wunderground v.1.15,2013-10-15 02:24:00,
2013-10-14 21:29:00,48.8,44.2,30.23,SE,136,5.0,5.0,84,0.00,,,0.01,Wunderground v.1.15,2013-10-15 02:29:00,
2013-10-14 21:35:00,49.0,44.4,30.22,ESE,112,0.0,6.0,84,0.00,,,0.01,Wunderground v.1.15,2013-10-15 02:35:00,
2013-10-14 21:40:00,49.0,44.1,30.22,SSE,159,2.0,6.0,83,0.00,,,0.01,Wunderground v.1.15,2013-10-15 02:40:00,
2013-10-14 21:45:00,49.1,44.2,30.22,ESE,113,3.0,3.0,83,0.00,,,0.01,Wunderground v.1.15,2013-10-15 02:45:00,
2013-10-14 21:50:00,49.2,44.6,30.22,ESE,116,0.0,4.0,84,0.00,,,0.01,Wunderground v.1.15,2013-10-15 02:50:00,
2013-10-14 21:55:00,49.3,44.7,30.21,SSE,164,3.0,3.0,84,0.00,,,0.01,Wunderground v.1.15,2013-10-15 02:55:00,
2013-10-14 22:00:00,49.4,44.8,30.21,SE,129,3.0,3.0,84,0.00,,,0.01,Wunderground v.1.15,2013-10-15 03:00:00,
2013-10-14 22:05:00,49.6,45.0,30.22,ESE,115,2.0,5.0,84,0.00,,,0.01,Wunderground v.1.15,2013-10-15 03:05:00,
2013-10-14 22:12:00,49.8,45.2,30.21,ESE,117,1.0,4.0,84,0.00,,,0.01,Wunderground v.1.15,2013-10-15 03:12:00,
2013-10-14 22:17:00,50.1,45.5,30.21,ESE,118,1.0,5.0,84,0.00,,,0.01,Wunderground v.1.15,2013-10-15 03:17:00,
2013-10-14 22:22:00,50.3,45.3,30.21,ESE,121,2.0,3.0,83,0.00,,,0.01,Wunderground v.1.15,2013-10-15 03:22:00,
2013-10-14 22:27:00,50.4,45.4,30.21,SE,126,0.0,7.0,83,0.00,,,0.01,Wunderground v.1.15,2013-10-15 03:27:00,
2013-10-14 22:32:00,50.3,45.3,30.20,SSE,158,1.0,4.0,83,0.00,,,0.01,Wunderground v.1.15,2013-10-15 03:32:00,
2013-10-14 22:37:00,50.2,45.2,30.21,ESE,111,1.0,4.0,83,0.00,,,0.01,Wunderground v.1.15,2013-10-15 03:37:00,
2013-10-14 22:42:00,50.0,45.4,30.20,ESE,113,2.0,3.0,84,0.00,,,0.01,Wunderground v.1.15,2013-10-15 03:42:00,
2013-10-14 22:47:00,49.9,45.3,30.20,SE,126,1.0,3.0,84,0.00,,,0.01,Wunderground v.1.15,2013-10-15 03:47:00,
2013-10-14 22:53:00,49.9,45.3,30.20,ESE,105,0.0,3.0,84,0.00,,,0.01,Wunderground v.1.15,2013-10-15 03:53:00,
2013-10-14 22:58:00,49.8,45.2,30.20,ESE,117,0.0,3.0,84,0.00,,,0.01,Wunderground v.1.15,2013-10-15 03:58:00,
2013-10-14 23:01:00,49.7,45.1,30.20,ESE,117,0.0,0.0,84,0.00,,,0.01,Wunderground v.1.15,2013-10-15 04:01:00,
2013-10-14 23:03:00,49.6,45.0,30.19,ESE,117,0.0,0.0,84,0.00,,,0.01,Wunderground v.1.15,2013-10-15 04:03:00,
2013-10-14 23:08:00,49.4,45.1,30.19,ESE,109,0.0,2.0,85,0.00,,,0.01,Wunderground v.1.15,2013-10-15 04:08:00,
2013-10-14 23:13:00,49.3,45.0,30.19,ESE,117,0.0,4.0,85,0.00,,,0.01,Wunderground v.1.15,2013-10-15 04:13:00,
2013-10-14 23:19:00,49.3,45.3,30.19,ESE,123,0.0,5.0,86,0.00,,,0.01,Wunderground v.1.15,2013-10-15 04:19:00,
2013-10-14 23:24:00,49.5,45.5,30.18,ESE,114,1.0,2.0,86,0.00,,,0.01,Wunderground v.1.15,2013-10-15 04:24:00,
2013-10-14 23:29:00,49.4,45.4,30.18,ESE,106,2.0,4.0,86,0.00,,,0.01,Wunderground v.1.15,2013-10-15 04:29:00,
2013-10-14 23:34:00,49.6,45.6,30.18,ESE,120,1.0,5.0,86,0.00,,,0.01,Wunderground v.1.15,2013-10-15 04:34:00,
2013-10-14 23:40:00,49.7,45.7,30.17,ESE,113,1.0,5.0,86,0.00,,,0.01,Wunderground v.1.15,2013-10-15 04:40:00,
2013-10-14 23:45:00,49.7,45.7,30.17,SE,142,2.0,3.0,86,0.00,,,0.01,Wunderground v.1.15,2013-10-15 04:45:00,
2013-10-14 23:50:00,49.8,45.8,30.17,SE,125,0.0,3.0,86,0.00,,,0.01,Wunderground v.1.15,2013-10-15 04:50:00,
2013-10-14 23:55:00,49.7,45.7,30.16,SE,124,0.0,2.0,86,0.00,,,0.01,Wunderground v.1.15,2013-10-15 04:55:00,